Time;durP1;ratioP1;P1;durP2;ratioP2;P2;SDS_P1;SDS_P2;PMS_P1;PMS_P2;Temp;Humidity;BMP_temperature;BMP_pressure;BME280_temperature;BME280_humidity;BME280_pressure;Samples;Min_cycle;Max_cycle;Signal;HPM_P1;HPM_P2
2024/01/03 00:01:21;;;;;;;3.53;1.52;;;10.70;99.90;;;;;;5013424;28;20652;-71
2024/01/03 00:03:47;;;;;;;28.10;2.92;;;10.70;99.90;;;;;;5008350;28;20038;-72
2024/01/03 00:06:14;;;;;;;23.55;3.00;;;10.60;99.90;;;;;;5014458;28;20032;-72
2024/01/03 00:08:40;;;;;;;10.88;1.48;;;10.60;99.90;;;;;;5002464;28;20029;-71
2024/01/03 00:11:07;;;;;;;9.23;1.23;;;10.70;99.90;;;;;;5010029;28;20065;-70
2024/01/03 00:14:01;;;;;;;14.40;1.20;;;10.70;99.90;;;;;;4999913;28;20048;-71
2024/01/03 01:11:28;;;;;;;5.88;2.35;;;10.10;99.90;;;;;;4990794;28;20056;-73
2024/01/03 01:13:54;;;;;;;5.32;0.77;;;10.20;99.90;;;;;;5015684;28;20405;-72
2024/01/03 01:16:19;;;;;;;10.23;1.20;;;10.10;99.90;;;;;;5013804;28;20463;-73
2024/01/03 01:18:45;;;;;;;8.85;2.08;;;10.20;99.90;;;;;;5010697;28;20084;-75
2024/01/03 01:21:11;;;;;;;3.90;1.15;;;10.10;99.90;;;;;;5016583;28;20131;-75
2024/01/03 01:23:41;;;;;;;8.40;1.20;;;10.10;99.90;;;;;;5013413;28;20037;-73
2024/01/03 01:26:08;;;;;;;14.70;1.63;;;10.10;99.90;;;;;;5012196;28;20029;-75
2024/01/03 01:28:33;;;;;;;12.68;2.15;;;10.20;99.90;;;;;;5016037;28;20034;-75
2024/01/03 01:30:59;;;;;;;2.28;1.02;;;10.10;99.90;;;;;;5016835;28;20091;-74
2024/01/03 01:33:24;;;;;;;0.80;0.50;;;10.10;99.90;;;;;;5014053;28;20436;-74
2024/01/03 01:35:50;;;;;;;10.55;0.90;;;10.00;99.90;;;;;;5016307;28;20517;-75
2024/01/03 01:38:16;;;;;;;5.15;1.02;;;10.00;99.90;;;;;;5012886;28;20486;-74
2024/01/03 01:40:41;;;;;;;7.70;1.17;;;9.90;99.90;;;;;;5017484;28;20494;-74
2024/01/03 01:43:07;;;;;;;6.45;0.50;;;9.90;99.90;;;;;;5017603;28;20028;-74
2024/01/03 01:45:33;;;;;;;6.43;0.47;;;9.90;99.90;;;;;;5010297;28;20022;-74
2024/01/03 01:47:59;;;;;;;5.78;0.77;;;9.80;99.90;;;;;;5022115;28;20541;-74
2024/01/03 01:50:25;;;;;;;1.02;0.38;;;9.80;99.90;;;;;;5016196;28;20081;-74
2024/01/03 01:52:52;;;;;;;3.05;0.70;;;9.80;99.90;;;;;;5010733;28;20116;-74
2024/01/03 01:55:19;;;;;;;5.80;0.70;;;9.70;99.90;;;;;;5014809;28;20038;-75
2024/01/03 01:57:45;;;;;;;5.10;0.63;;;9.70;99.90;;;;;;5013525;28;20041;-74
2024/01/03 02:00:12;;;;;;;9.85;0.73;;;9.60;99.90;;;;;;5014377;28;20026;-74
2024/01/03 02:02:39;;;;;;;7.03;0.77;;;9.60;99.90;;;;;;5018721;28;20092;-75
2024/01/03 02:05:05;;;;;;;2.45;0.60;;;9.50;99.90;;;;;;5010420;28;20017;-75
2024/01/03 02:07:31;;;;;;;0.22;0.03;;;9.40;99.90;;;;;;5013208;28;20398;-74
2024/01/03 02:09:56;;;;;;;3.53;0.40;;;9.40;99.90;;;;;;5016346;28;20029;-74
2024/01/03 02:12:27;;;;;;;3.60;0.38;;;9.30;99.90;;;;;;5011724;28;20137;-73
2024/01/03 02:14:53;;;;;;;0.20;0.20;;;9.30;99.90;;;;;;5016175;28;20030;-73
2024/01/03 02:17:19;;;;;;;3.78;0.63;;;9.40;99.90;;;;;;5015183;28;20041;-72
2024/01/03 02:19:44;;;;;;;4.55;1.13;;;9.40;99.90;;;;;;5011840;28;20543;-73
2024/01/03 02:22:10;;;;;;;6.45;0.80;;;9.40;99.90;;;;;;5014747;28;20026;-72
2024/01/03 02:24:35;;;;;;;5.75;1.08;;;9.50;99.90;;;;;;5011708;28;20643;-72
2024/01/03 02:27:01;;;;;;;5.43;0.32;;;9.50;99.90;;;;;;5015865;28;20037;-73
2024/01/03 02:29:27;;;;;;;0.70;0.25;;;9.50;99.90;;;;;;5014647;28;20053;-72
2024/01/03 02:31:52;;;;;;;2.90;0.75;;;9.60;99.90;;;;;;5010966;28;20384;-72
2024/01/03 02:34:18;;;;;;;12.95;2.70;;;9.60;99.90;;;;;;5011761;28;20026;-72
2024/01/03 02:36:48;;;;;;;3.20;0.98;;;9.60;99.90;;;;;;5020012;28;20033;-72
2024/01/03 02:39:14;;;;;;;6.57;0.60;;;9.70;99.90;;;;;;5009322;28;20347;-73
2024/01/03 02:41:39;;;;;;;16.30;1.60;;;9.70;99.90;;;;;;5013181;28;20117;-72
2024/01/03 02:44:05;;;;;;;10.48;2.08;;;9.70;99.90;;;;;;5016769;28;20473;-73
2024/01/03 02:46:30;;;;;;;2.20;0.73;;;9.80;99.90;;;;;;5011951;28;20474;-72
2024/01/03 02:48:56;;;;;;;13.32;1.25;;;9.90;99.90;;;;;;5012678;28;20041;-71
2024/01/03 02:51:22;;;;;;;7.28;1.35;;;10.00;99.90;;;;;;5012182;28;20092;-72
2024/01/03 02:53:48;;;;;;;6.78;1.90;;;10.00;99.90;;;;;;5009661;28;20107;-72
2024/01/03 02:56:14;;;;;;;3.22;0.73;;;10.00;99.90;;;;;;5011151;28;20029;-72
2024/01/03 02:58:40;;;;;;;4.78;0.43;;;10.00;99.90;;;;;;5010193;28;20026;-72
2024/01/03 03:01:06;;;;;;;3.42;1.63;;;10.00;99.90;;;;;;5018215;28;20030;-71
2024/01/03 03:03:32;;;;;;;7.00;1.13;;;10.00;99.90;;;;;;5025319;28;20037;-72
2024/01/03 03:05:57;;;;;;;10.52;1.30;;;10.00;99.90;;;;;;5010849;28;20120;-72
2024/01/03 03:08:23;;;;;;;5.97;0.98;;;10.00;99.90;;;;;;5015941;28;20155;-72
2024/01/03 03:10:49;;;;;;;5.10;0.80;;;10.10;99.90;;;;;;5013250;28;20042;-72
2024/01/03 03:13:16;;;;;;;3.33;0.70;;;10.10;99.90;;;;;;5004435;28;20053;-71
2024/01/03 03:15:42;;;;;;;9.50;1.70;;;10.10;99.90;;;;;;5010703;28;20212;-71
2024/01/03 03:18:08;;;;;;;7.65;0.88;;;10.20;99.90;;;;;;5011328;28;20041;-72
2024/01/03 03:20:34;;;;;;;11.07;2.28;;;10.20;99.90;;;;;;5010889;28;20033;-72
2024/01/03 03:22:59;;;;;;;13.73;0.95;;;10.20;99.90;;;;;;5012125;28;21209;-73
2024/01/03 03:25:25;;;;;;;5.28;0.85;;;10.20;99.90;;;;;;5010625;28;20549;-71
2024/01/03 03:27:51;;;;;;;1.45;0.47;;;10.00;99.90;;;;;;4997976;28;20143;-72
2024/01/03 03:30:17;;;;;;;5.88;0.40;;;9.90;99.90;;;;;;5016365;28;20026;-73
2024/01/03 03:32:45;;;;;;;0.88;0.43;;;9.90;99.90;;;;;;5013070;28;20054;-73
2024/01/03 03:35:11;;;;;;;1.85;0.20;;;9.90;99.90;;;;;;5014703;28;20043;-73
2024/01/03 03:37:37;;;;;;;1.42;0.65;;;10.00;99.90;;;;;;5017259;28;20038;-72
2024/01/03 03:40:03;;;;;;;2.28;0.43;;;9.90;99.90;;;;;;5012444;28;20028;-72
2024/01/03 03:42:29;;;;;;;2.22;0.75;;;9.90;99.90;;;;;;5013377;28;20032;-71
2024/01/03 03:44:54;;;;;;;7.38;0.80;;;9.80;99.90;;;;;;5013462;28;20029;-73
2024/01/03 03:47:20;;;;;;;4.63;1.08;;;9.80;99.90;;;;;;5011964;28;20041;-71
2024/01/03 03:49:45;;;;;;;1.25;0.57;;;9.80;99.90;;;;;;5012210;28;20038;-71
2024/01/03 03:52:11;;;;;;;1.90;0.47;;;9.70;99.90;;;;;;5010266;28;20373;-71
2024/01/03 03:54:37;;;;;;;9.73;1.08;;;9.70;99.90;;;;;;5011511;28;20120;-72
2024/01/03 03:57:02;;;;;;;1.48;0.65;;;9.60;99.90;;;;;;5017989;28;20047;-72
2024/01/03 03:59:28;;;;;;;4.82;0.68;;;9.60;99.90;;;;;;5011374;28;20038;-71
2024/01/03 04:01:54;;;;;;;1.45;1.13;;;9.60;99.90;;;;;;5010827;28;20036;-71
2024/01/03 04:04:21;;;;;;;4.20;0.75;;;9.50;99.90;;;;;;5010718;28;20037;-72
2024/01/03 04:06:47;;;;;;;6.60;1.52;;;9.50;99.90;;;;;;5007973;28;20391;-71
2024/01/03 04:09:13;;;;;;;11.98;1.27;;;9.40;99.90;;;;;;5014958;28;20569;-71
2024/01/03 04:11:41;;;;;;;9.00;2.00;;;9.50;99.90;;;;;;5012990;28;20434;-72
2024/01/03 04:14:07;;;;;;;9.10;2.28;;;9.50;99.90;;;;;;5009195;28;20069;-71
2024/01/03 04:16:34;;;;;;;2.88;0.73;;;9.50;99.90;;;;;;5009684;28;20030;-72
2024/01/03 04:19:00;;;;;;;4.55;1.15;;;9.50;99.90;;;;;;5008295;28;20037;-72
2024/01/03 04:21:27;;;;;;;8.25;1.90;;;9.60;99.90;;;;;;5012041;28;20018;-72
2024/01/03 04:23:53;;;;;;;5.25;1.45;;;9.60;99.90;;;;;;5017336;28;20033;-72
2024/01/03 04:26:18;;;;;;;12.88;1.70;;;9.60;99.90;;;;;;5012718;28;20034;-72
2024/01/03 04:28:44;;;;;;;1.75;0.98;;;9.50;99.90;;;;;;5012573;28;20034;-73
2024/01/03 04:31:10;;;;;;;5.95;0.93;;;9.50;99.90;;;;;;5015343;28;20037;-70
2024/01/03 04:33:35;;;;;;;4.32;1.27;;;9.50;99.90;;;;;;5007908;28;20038;-71
2024/01/03 04:36:01;;;;;;;3.47;1.58;;;9.50;99.90;;;;;;5014734;28;20029;-71
2024/01/03 04:38:27;;;;;;;4.78;1.33;;;9.60;99.90;;;;;;5014235;28;20053;-71
2024/01/03 04:40:52;;;;;;;8.10;0.88;;;9.50;99.90;;;;;;5019283;28;20310;-71
2024/01/03 04:43:18;;;;;;;0.82;0.50;;;9.60;99.90;;;;;;5016653;28;20104;-73
2024/01/03 04:45:44;;;;;;;3.53;0.82;;;9.60;99.90;;;;;;5011416;28;20029;-73
2024/01/03 04:48:10;;;;;;;7.63;2.53;;;9.70;99.90;;;;;;5010075;28;20048;-72
2024/01/03 04:50:35;;;;;;;4.50;0.73;;;9.80;99.90;;;;;;5016503;28;20118;-72
2024/01/03 04:53:01;;;;;;;2.38;0.93;;;9.80;99.90;;;;;;5008960;28;20033;-72
2024/01/03 04:55:27;;;;;;;14.57;1.52;;;9.90;99.90;;;;;;5014272;28;20168;-71
2024/01/03 04:57:53;;;;;;;4.75;1.48;;;10.00;99.90;;;;;;5015048;28;20879;-71
2024/01/03 05:00:19;;;;;;;7.63;1.45;;;10.00;99.90;;;;;;5014624;28;20478;-71
2024/01/03 05:02:45;;;;;;;6.07;1.40;;;9.90;99.90;;;;;;5003029;28;20049;-72
2024/01/03 05:05:10;;;;;;;2.80;0.73;;;9.90;99.90;;;;;;5010532;28;20030;-72
2024/01/03 05:07:36;;;;;;;9.88;1.77;;;9.80;99.90;;;;;;5010748;28;20066;-70
2024/01/03 05:10:02;;;;;;;18.98;2.60;;;9.80;99.90;;;;;;5004167;28;20309;-72
2024/01/03 05:12:28;;;;;;;12.07;1.45;;;9.90;99.90;;;;;;5007744;28;20168;-72
2024/01/03 05:14:54;;;;;;;6.63;0.77;;;9.90;99.90;;;;;;5007197;28;20082;-73
2024/01/03 05:17:20;;;;;;;14.27;2.38;;;10.00;99.90;;;;;;5012676;28;20060;-71
2024/01/03 05:19:46;;;;;;;5.70;0.90;;;10.00;99.90;;;;;;5004133;28;20060;-71
2024/01/03 05:22:11;;;;;;;14.57;2.72;;;10.10;99.90;;;;;;5012074;28;20434;-71
2024/01/03 05:24:37;;;;;;;7.53;1.20;;;10.10;99.90;;;;;;5013807;28;20048;-72
2024/01/03 05:27:03;;;;;;;12.43;1.77;;;10.20;99.90;;;;;;5010701;28;20071;-72
2024/01/03 05:29:28;;;;;;;7.72;1.13;;;10.20;99.90;;;;;;5019587;28;20029;-70
2024/01/03 05:31:54;;;;;;;9.95;1.17;;;10.30;99.90;;;;;;5012409;28;20409;-71
2024/01/03 05:34:19;;;;;;;3.20;1.00;;;10.30;99.90;;;;;;5014691;28;20079;-71
2024/01/03 05:36:45;;;;;;;9.65;1.77;;;10.20;99.90;;;;;;5017259;28;21113;-71
2024/01/03 05:39:13;;;;;;;9.75;2.13;;;10.20;99.90;;;;;;5012004;28;20037;-72
2024/01/03 05:41:39;;;;;;;2.05;1.20;;;10.20;99.90;;;;;;5019382;28;20130;-71
2024/01/03 05:44:04;;;;;;;5.50;0.88;;;10.10;99.90;;;;;;5016318;28;20036;-71
2024/01/03 05:46:30;;;;;;;10.43;0.63;;;10.00;99.90;;;;;;5013292;28;20029;-71
2024/01/03 05:48:56;;;;;;;8.80;1.73;;;10.00;99.90;;;;;;5017486;28;20033;-71
2024/01/03 05:51:22;;;;;;;6.18;1.60;;;9.90;99.90;;;;;;5019699;28;20032;-72
2024/01/03 05:53:48;;;;;;;6.55;1.40;;;9.90;99.90;;;;;;5013435;28;20275;-71
2024/01/03 05:56:15;;;;;;;13.80;2.30;;;9.80;99.90;;;;;;5015108;28;20038;-73
2024/01/03 05:58:42;;;;;;;5.50;1.50;;;9.90;99.90;;;;;;5017909;28;20057;-72
2024/01/03 06:01:08;;;;;;;7.03;1.35;;;9.80;99.90;;;;;;5013700;28;20030;-71
2024/01/03 06:03:34;;;;;;;13.82;2.05;;;9.90;99.90;;;;;;5013779;28;20510;-72
2024/01/03 06:06:00;;;;;;;9.02;1.95;;;9.90;99.90;;;;;;5015144;28;20044;-71
2024/01/03 06:08:53;;;;;;;13.95;1.55;;;10.00;99.90;;;;;;5015635;28;20022;-73
2024/01/03 06:11:19;;;;;;;8.27;2.30;;;10.20;99.90;;;;;;5015040;28;20065;-72
2024/01/03 06:13:44;;;;;;;17.83;2.33;;;10.20;99.90;;;;;;5014129;28;20491;-73
2024/01/03 06:16:10;;;;;;;29.17;1.85;;;10.20;99.90;;;;;;5019543;28;20553;-73
2024/01/03 06:18:36;;;;;;;9.52;1.83;;;10.10;99.90;;;;;;5012350;28;20144;-73
2024/01/03 06:21:04;;;;;;;21.80;1.60;;;10.00;99.90;;;;;;5012251;28;20100;-73
2024/01/03 06:23:30;;;;;;;8.15;1.42;;;9.90;99.90;;;;;;5011676;28;20033;-72
2024/01/03 06:25:56;;;;;;;6.25;1.73;;;9.90;99.90;;;;;;5001106;28;20048;-72
2024/01/03 06:28:21;;;;;;;7.68;2.17;;;9.90;99.90;;;;;;5015748;28;20037;-73
2024/01/03 06:30:47;;;;;;;12.43;1.35;;;9.90;99.90;;;;;;5014240;28;20088;-72
2024/01/03 06:33:13;;;;;;;5.68;1.52;;;9.90;99.90;;;;;;5013070;28;20101;-71
2024/01/03 06:35:38;;;;;;;3.65;1.60;;;9.90;99.90;;;;;;5018839;28;20474;-72
2024/01/03 06:38:04;;;;;;;8.48;1.40;;;9.90;99.90;;;;;;5015326;28;20041;-72
2024/01/03 06:40:30;;;;;;;8.27;2.50;;;10.00;99.90;;;;;;5009559;28;20036;-71
2024/01/03 06:42:56;;;;;;;16.02;1.80;;;10.00;99.90;;;;;;5014627;28;20056;-71
2024/01/03 06:45:22;;;;;;;18.83;3.08;;;10.10;99.90;;;;;;5017069;28;20030;-73
2024/01/03 06:47:47;;;;;;;18.13;3.13;;;10.20;99.90;;;;;;5009799;28;20025;-72
2024/01/03 06:50:13;;;;;;;10.27;2.92;;;10.30;99.90;;;;;;5014827;28;20569;-74
2024/01/03 06:52:39;;;;;;;4.13;1.33;;;10.20;99.90;;;;;;5012762;28;20037;-72
2024/01/03 06:55:05;;;;;;;11.25;2.08;;;10.10;99.90;;;;;;5009480;28;20033;-72
2024/01/03 06:57:31;;;;;;;13.88;1.77;;;10.10;99.90;;;;;;5014561;28;20041;-73
2024/01/03 06:59:56;;;;;;;5.63;1.13;;;10.10;99.90;;;;;;5016471;28;20017;-72
2024/01/03 07:02:22;;;;;;;7.97;1.10;;;10.10;99.90;;;;;;5001610;28;20091;-71
2024/01/03 07:04:48;;;;;;;8.85;0.85;;;10.10;99.90;;;;;;5013285;28;20065;-72
2024/01/03 07:07:15;;;;;;;3.80;1.65;;;10.00;99.90;;;;;;5013262;28;20184;-72
2024/01/03 07:09:41;;;;;;;8.85;2.72;;;10.00;99.90;;;;;;5005278;28;20391;-72
2024/01/03 07:12:07;;;;;;;21.52;2.03;;;10.00;99.90;;;;;;5014522;28;20040;-71
2024/01/03 07:14:33;;;;;;;10.07;2.50;;;9.90;99.90;;;;;;5008179;28;20037;-73
2024/01/03 07:17:01;;;;;;;12.13;2.03;;;10.00;99.90;;;;;;5015319;28;20460;-72
2024/01/03 07:19:27;;;;;;;12.90;1.60;;;10.00;99.90;;;;;;5010836;28;20033;-72
2024/01/03 07:21:53;;;;;;;12.55;1.67;;;9.90;99.90;;;;;;5010114;28;20036;-71
2024/01/03 07:24:18;;;;;;;14.63;1.50;;;9.90;99.90;;;;;;5014052;28;20073;-72
2024/01/03 07:26:44;;;;;;;23.80;2.92;;;10.00;99.90;;;;;;5008658;28;20024;-72
2024/01/03 07:29:09;;;;;;;17.00;2.63;;;10.00;99.90;;;;;;5011334;28;20520;-72
2024/01/03 07:31:35;;;;;;;9.63;2.33;;;10.00;99.90;;;;;;5013062;28;20044;-72
2024/01/03 07:34:01;;;;;;;8.20;1.58;;;10.00;99.90;;;;;;5006137;28;20033;-71
2024/01/03 07:36:26;;;;;;;7.75;1.83;;;10.00;99.90;;;;;;5014370;28;20165;-72
2024/01/03 07:38:52;;;;;;;6.43;1.73;;;10.10;99.90;;;;;;5011782;28;20862;-73
2024/01/03 07:41:20;;;;;;;9.13;1.23;;;10.10;99.90;;;;;;5006404;28;20030;-71
2024/01/03 07:43:45;;;;;;;15.68;2.28;;;10.10;99.90;;;;;;5008633;28;20146;-74
2024/01/03 07:46:14;;;;;;;14.00;1.65;;;10.20;99.90;;;;;;5001148;28;20038;-72
2024/01/03 07:48:39;;;;;;;15.50;2.95;;;10.20;99.90;;;;;;5005744;28;20029;-71
2024/01/03 07:51:05;;;;;;;21.88;2.72;;;10.30;99.90;;;;;;5008100;28;20397;-71
2024/01/03 07:53:31;;;;;;;12.77;3.42;;;10.40;99.90;;;;;;5002852;28;20030;-72
2024/01/03 07:55:56;;;;;;;10.30;1.52;;;10.40;99.90;;;;;;5007988;28;20030;-72
2024/01/03 07:58:22;;;;;;;6.70;1.65;;;10.50;99.90;;;;;;5006071;28;21116;-71
2024/01/03 08:00:47;;;;;;;9.93;2.20;;;10.50;99.90;;;;;;5003463;28;20047;-72
2024/01/03 08:03:13;;;;;;;8.68;2.60;;;10.50;99.90;;;;;;5009695;28;21632;-73
2024/01/03 08:05:39;;;;;;;14.10;1.75;;;10.50;99.90;;;;;;5005435;28;21493;-72
2024/01/03 08:08:04;;;;;;;18.40;2.53;;;10.40;99.90;;;;;;5002521;28;20042;-73
2024/01/03 08:10:30;;;;;;;25.50;2.42;;;10.30;99.90;;;;;;5006295;28;20030;-71
2024/01/03 08:12:56;;;;;;;12.65;2.08;;;10.30;99.90;;;;;;5002654;28;20064;-71
2024/01/03 08:15:21;;;;;;;12.32;2.20;;;10.30;99.90;;;;;;5003736;28;20065;-72
2024/01/03 08:17:49;;;;;;;10.82;1.80;;;10.30;99.90;;;;;;5010212;28;20134;-73
2024/01/03 08:20:15;;;;;;;4.65;2.47;;;10.30;99.90;;;;;;5005478;28;20149;-71
2024/01/03 08:22:40;;;;;;;7.85;1.30;;;10.30;99.90;;;;;;5003239;28;20030;-70
2024/01/03 08:25:06;;;;;;;10.05;1.92;;;10.40;99.90;;;;;;5001653;28;20034;-72
2024/01/03 08:27:36;;;;;;;6.47;0.80;;;10.40;99.90;;;;;;4998256;28;20040;-71
2024/01/03 08:30:02;;;;;;;;;;;10.50;99.90;;;;;;5005186;28;20198;-71
2024/01/03 08:32:27;;;;;;;9.40;1.58;;;10.50;99.90;;;;;;4996756;28;20468;-69
2024/01/03 08:34:53;;;;;;;17.23;2.13;;;10.60;99.90;;;;;;4999567;28;20053;-69
2024/01/03 08:37:19;;;;;;;9.68;1.67;;;10.70;99.90;;;;;;5008313;28;20033;-70
2024/01/03 08:39:44;;;;;;;15.23;2.03;;;10.70;99.90;;;;;;4999383;28;20441;-69
2024/01/03 08:42:10;;;;;;;10.90;2.58;;;10.80;99.90;;;;;;4996554;28;20041;-73
2024/01/03 08:44:36;;;;;;;17.67;2.88;;;10.90;99.90;;;;;;4996487;28;20076;-72
2024/01/03 08:47:01;;;;;;;18.98;2.85;;;10.90;99.90;;;;;;4998150;28;20079;-72
2024/01/03 08:49:27;;;;;;;9.13;2.15;;;10.80;99.90;;;;;;4996133;28;20037;-73
2024/01/03 08:51:53;;;;;;;13.60;2.67;;;10.80;99.90;;;;;;5001386;28;20056;-72
2024/01/03 08:54:18;;;;;;;7.25;2.25;;;10.80;99.90;;;;;;4997933;28;20044;-72
2024/01/03 08:56:48;;;;;;;14.20;2.42;;;10.80;99.90;;;;;;5005437;28;20462;-71
2024/01/03 08:59:13;;;;;;;9.75;3.15;;;10.70;99.90;;;;;;5003443;28;20796;-72
2024/01/03 09:01:39;;;;;;;14.30;2.30;;;10.70;99.90;;;;;;4997302;28;20037;-72
2024/01/03 09:04:05;;;;;;;16.30;2.13;;;10.70;99.90;;;;;;5001158;28;20133;-73
2024/01/03 09:06:35;;;;;;;9.30;2.90;;;10.80;99.90;;;;;;5004040;28;20030;-71
2024/01/03 09:09:01;;;;;;;10.18;1.60;;;10.80;99.90;;;;;;4999616;28;20033;-69
2024/01/03 09:11:28;;;;;;;10.68;1.10;;;10.80;99.90;;;;;;5000229;28;20501;-69
2024/01/03 09:13:54;;;;;;;14.95;2.65;;;10.70;99.90;;;;;;4999977;28;20425;-69
2024/01/03 09:16:22;;;;;;;12.75;2.40;;;10.70;99.90;;;;;;5000555;28;20141;-69
2024/01/03 09:18:49;;;;;;;22.10;2.00;;;10.80;99.90;;;;;;5005924;28;20061;-69
2024/01/03 09:21:16;;;;;;;9.63;1.58;;;10.70;99.90;;;;;;5000261;28;20065;-68
2024/01/03 09:23:42;;;;;;;16.40;2.42;;;10.70;99.90;;;;;;5005342;28;20121;-69
2024/01/03 09:26:10;;;;;;;32.70;2.20;;;10.70;99.90;;;;;;5006650;28;20029;-68
2024/01/03 09:28:37;;;;;;;8.20;1.85;;;10.80;99.90;;;;;;4997483;28;20490;-69
2024/01/03 09:31:04;;;;;;;16.15;1.77;;;10.90;99.90;;;;;;5005961;28;20084;-69
2024/01/03 09:33:29;;;;;;;16.00;3.67;;;11.00;99.90;;;;;;4994924;28;20712;-70
2024/01/03 09:35:55;;;;;;;12.35;1.23;;;11.10;99.90;;;;;;4995952;28;20078;-70
2024/01/03 09:38:21;;;;;;;22.83;3.22;;;11.00;99.90;;;;;;5010388;28;20037;-68
2024/01/03 09:40:47;;;;;;;16.52;2.05;;;11.00;99.90;;;;;;5006279;28;20040;-70
2024/01/03 09:43:13;;;;;;;18.88;2.45;;;11.00;99.90;;;;;;5014031;28;20052;-73
2024/01/03 09:45:40;;;;;;;9.18;1.92;;;11.00;99.90;;;;;;5005192;28;20068;-73
2024/01/03 09:48:06;;;;;;;17.77;1.52;;;11.10;99.90;;;;;;5000719;28;20041;-72
2024/01/03 09:50:32;;;;;;;16.45;1.25;;;11.10;99.90;;;;;;5007715;28;20034;-71
2024/01/03 09:52:58;;;;;;;26.38;2.60;;;11.20;99.90;;;;;;5010719;28;20048;-72
2024/01/03 09:55:24;;;;;;;3.58;0.93;;;11.20;99.90;;;;;;5008972;28;20433;-72
2024/01/03 09:57:50;;;;;;;10.07;3.03;;;11.30;99.90;;;;;;5012217;28;20191;-74
2024/01/03 10:00:16;;;;;;;6.93;1.60;;;11.40;99.90;;;;;;5021761;28;20056;-72
2024/01/03 10:02:47;;;;;;;7.90;1.38;;;11.50;99.90;;;;;;5029799;28;20041;-73
2024/01/03 10:05:21;;;;;;;7.20;1.92;;;11.50;99.90;;;;;;5014876;28;20038;-71
2024/01/03 10:07:47;;;;;;;4.78;0.90;;;11.50;99.90;;;;;;5007558;28;20033;-73
2024/01/03 10:10:27;;;;;;;7.82;2.38;;;11.50;99.90;;;;;;5012537;28;20029;-70
2024/01/03 10:12:53;;;;;;;15.23;2.28;;;11.50;99.90;;;;;;5010618;28;20099;-72
2024/01/03 10:15:19;;;;;;;7.65;1.10;;;11.70;99.90;;;;;;5001190;28;20594;-73
2024/01/03 10:17:46;;;;;;;7.75;1.80;;;11.80;99.90;;;;;;5007335;28;20449;-74
2024/01/03 10:20:31;;;;;;;6.88;1.63;;;11.90;99.90;;;;;;5003791;28;20052;-69
2024/01/03 10:23:13;;;;;;;13.52;1.77;;;11.90;99.90;;;;;;5003237;28;20144;-72
2024/01/03 10:25:41;;;;;;;10.02;1.67;;;11.90;99.90;;;;;;5003295;28;20052;-68
2024/01/03 10:28:11;;;;;;;8.18;1.52;;;12.00;99.90;;;;;;5002600;28;20036;-68
2024/01/03 10:30:37;;;;;;;12.15;2.38;;;12.10;99.90;;;;;;5006793;28;20530;-70
2024/01/03 10:33:05;;;;;;;8.65;1.88;;;12.10;99.90;;;;;;5007088;28;20057;-69
2024/01/03 10:35:33;;;;;;;8.25;1.95;;;12.20;99.90;;;;;;5000454;28;20052;-73
2024/01/03 10:38:00;;;;;;;14.50;2.45;;;12.30;99.90;;;;;;5004515;28;20095;-68
2024/01/03 10:40:29;;;;;;;8.77;1.45;;;12.30;99.90;;;;;;5009160;28;20041;-70
2024/01/03 10:42:55;;;;;;;11.65;0.90;;;12.60;99.90;;;;;;5003177;28;20172;-69
2024/01/03 10:45:21;;;;;;;7.15;0.98;;;13.00;99.90;;;;;;5002594;28;20037;-69
2024/01/03 10:47:48;;;;;;;5.82;0.77;;;13.30;99.90;;;;;;4995491;28;20049;-69
2024/01/03 10:50:14;;;;;;;10.95;1.73;;;13.30;99.90;;;;;;5006296;28;20075;-68
2024/01/03 10:52:42;;;;;;;8.63;1.27;;;13.20;99.90;;;;;;5008014;28;20041;-68
2024/01/03 10:55:26;;;;;;;9.40;1.20;;;13.20;99.90;;;;;;5002982;28;20044;-69
2024/01/03 10:57:58;;;;;;;19.33;2.15;;;13.50;99.90;;;;;;5004333;28;20043;-70
2024/01/03 11:00:50;;;;;;;5.22;1.40;;;13.50;99.90;;;;;;5005501;28;20056;-69
2024/01/03 11:03:33;;;;;;;21.25;1.70;;;13.50;99.90;;;;;;5005876;28;20045;-78
2024/01/03 11:06:29;;;;;;;13.02;1.35;;;12.90;99.90;;;;;;5008709;28;20409;-74
2024/01/03 11:08:58;;;;;;;9.90;0.93;;;12.20;99.90;;;;;;5002559;28;20128;-76
2024/01/03 11:11:30;;;;;;;6.95;0.90;;;11.60;99.90;;;;;;5009844;28;20041;-74
2024/01/03 11:13:57;;;;;;;5.85;0.55;;;11.10;99.90;;;;;;5006833;28;20037;-75
2024/01/03 11:16:37;;;;;;;3.88;0.95;;;10.90;99.90;;;;;;5003931;28;20727;-73
2024/01/03 11:19:04;;;;;;;5.78;0.98;;;10.70;99.90;;;;;;5007122;28;20079;-72
2024/01/03 11:21:35;;;;;;;1.85;0.52;;;10.50;99.90;;;;;;5002803;28;20121;-72
2024/01/03 11:24:03;;;;;;;2.13;0.35;;;10.40;99.90;;;;;;5008441;28;20037;-71
2024/01/03 11:27:03;;;;;;;5.43;1.20;;;10.40;99.90;;;;;;5009996;28;20374;-74
2024/01/03 11:29:43;;;;;;;1.23;0.57;;;10.40;99.90;;;;;;5004829;28;20033;-70
2024/01/03 11:32:26;;;;;;;10.65;1.35;;;10.50;99.90;;;;;;5010667;28;20478;-73
2024/01/03 11:34:53;;;;;;;8.60;1.70;;;10.50;99.90;;;;;;5005247;28;20041;-72
2024/01/03 11:37:18;;;;;;;9.88;1.10;;;10.50;99.90;;;;;;5007281;28;20026;-73
2024/01/03 11:39:46;;;;;;;14.05;2.05;;;10.40;99.90;;;;;;5009059;28;20837;-73
2024/01/03 11:42:33;;;;;;;6.18;1.83;;;10.50;99.90;;;;;;5005022;28;20401;-72
2024/01/03 11:45:04;;;;;;;8.43;1.42;;;10.50;99.90;;;;;;5005634;28;20113;-72
2024/01/03 11:47:32;;;;;;;17.63;1.85;;;10.50;99.90;;;;;;5004448;28;20049;-72
2024/01/03 11:49:59;;;;;;;8.88;1.95;;;10.50;99.90;;;;;;4999665;28;20108;-73
2024/01/03 11:52:25;;;;;;;9.45;0.63;;;10.60;99.90;;;;;;5007820;28;20171;-72
2024/01/03 11:54:51;;;;;;;9.20;0.80;;;10.70;99.90;;;;;;5001107;28;20033;-72
2024/01/03 11:57:21;;;;;;;22.95;2.22;;;10.80;99.90;;;;;;5002798;28;20611;-71
2024/01/03 11:59:48;;;;;;;9.48;1.50;;;11.00;99.90;;;;;;5003313;28;20052;-72
2024/01/03 12:02:14;;;;;;;11.55;1.55;;;11.20;99.90;;;;;;5003526;28;20436;-74
2024/01/03 12:04:41;;;;;;;15.75;2.05;;;11.40;99.90;;;;;;5001522;28;20039;-72
2024/01/03 12:07:07;;;;;;;6.80;1.85;;;11.50;99.90;;;;;;5004787;28;20735;-70
2024/01/03 12:09:33;;;;;;;20.52;1.50;;;11.60;99.90;;;;;;5003382;28;21837;-72
2024/01/03 12:11:59;;;;;;;6.13;1.48;;;11.50;99.90;;;;;;5001020;28;20050;-71
2024/01/03 12:14:25;;;;;;;7.00;1.05;;;11.50;99.90;;;;;;5004603;28;20045;-72
2024/01/03 12:16:53;;;;;;;23.13;2.22;;;11.30;99.90;;;;;;5010256;28;20033;-74
2024/01/03 12:19:28;;;;;;;5.60;0.85;;;11.00;99.90;;;;;;5012172;28;20041;-73
2024/01/03 12:22:02;;;;;;;8.15;0.65;;;10.90;99.90;;;;;;5004410;28;20060;-75
2024/01/03 12:24:43;;;;;;;2.85;0.85;;;10.60;99.90;;;;;;5009957;28;20514;-76
2024/01/03 12:27:10;;;;;;;2.70;0.90;;;10.30;99.90;;;;;;5008762;28;20045;-76
2024/01/03 12:29:36;;;;;;;5.05;0.75;;;10.10;99.90;;;;;;5004682;28;20052;-76
2024/01/03 12:32:20;;;;;;;0.90;0.30;;;9.90;99.90;;;;;;5006421;28;20026;-76
2024/01/03 12:34:47;;;;;;;16.40;0.98;;;9.70;99.90;;;;;;5008434;28;20029;-77
2024/01/03 12:37:15;;;;;;;2.38;0.60;;;9.60;99.90;;;;;;5006326;28;20080;-73
2024/01/03 12:39:41;;;;;;;2.80;0.40;;;9.60;99.90;;;;;;5005995;28;20767;-70
2024/01/03 12:42:10;;;;;;;3.70;0.47;;;9.60;99.90;;;;;;4995944;28;20111;-71
2024/01/03 12:44:38;;;;;;;4.80;1.30;;;9.60;99.90;;;;;;5005691;28;20069;-72
2024/01/03 12:47:09;;;;;;;9.52;0.70;;;9.70;99.90;;;;;;5011984;28;20283;-71
2024/01/03 12:49:37;;;;;;;4.05;0.45;;;9.80;99.90;;;;;;5011923;28;20044;-71
2024/01/03 12:52:02;;;;;;;0.98;0.32;;;10.00;99.90;;;;;;5008520;28;20045;-71
2024/01/03 12:54:28;;;;;;;10.45;0.85;;;10.00;99.90;;;;;;5006790;28;20044;-71
2024/01/03 12:56:54;;;;;;;1.98;0.40;;;10.20;99.90;;;;;;5009418;28;20088;-72
2024/01/03 12:59:20;;;;;;;0.95;0.88;;;10.30;99.90;;;;;;5011674;28;20103;-73
2024/01/03 13:01:46;;;;;;;1.45;0.95;;;10.30;99.90;;;;;;5003010;28;20483;-72
2024/01/03 13:04:13;;;;;;;9.60;1.27;;;10.40;99.90;;;;;;5012899;28;20057;-71
2024/01/03 13:06:42;;;;;;;12.93;1.17;;;10.50;99.90;;;;;;5013386;28;20025;-73
2024/01/03 13:09:09;;;;;;;10.32;1.25;;;10.60;99.90;;;;;;5006666;28;21085;-71
2024/01/03 13:11:35;;;;;;;13.52;1.30;;;10.80;99.90;;;;;;5010268;28;20174;-71
2024/01/03 13:14:01;;;;;;;8.93;1.15;;;11.00;99.90;;;;;;5009576;28;20462;-75
2024/01/03 13:16:27;;;;;;;3.80;1.00;;;11.20;99.90;;;;;;5008445;28;20041;-70
2024/01/03 13:18:53;;;;;;;11.20;2.05;;;11.40;99.90;;;;;;5009693;28;20052;-68
2024/01/03 13:21:19;;;;;;;9.82;1.52;;;11.60;99.90;;;;;;5004986;28;20445;-69
2024/01/03 13:23:46;;;;;;;6.63;1.05;;;11.80;99.90;;;;;;5007988;28;20041;-69
2024/01/03 13:26:12;;;;;;;5.82;1.25;;;12.00;99.90;;;;;;5012390;28;20030;-68
2024/01/03 13:28:41;;;;;;;11.07;1.45;;;12.20;99.90;;;;;;5004434;28;20846;-69
2024/01/03 13:31:12;;;;;;;3.25;0.75;;;12.30;99.90;;;;;;4993879;28;20671;-69
2024/01/03 13:33:37;;;;;;;6.47;1.10;;;12.40;99.90;;;;;;5007966;28;20033;-69
2024/01/03 13:36:04;;;;;;;7.10;1.92;;;12.50;99.90;;;;;;5005085;28;20044;-68
2024/01/03 13:38:29;;;;;;;1.95;1.23;;;12.40;99.90;;;;;;5002746;28;20398;-71
2024/01/03 13:40:55;;;;;;;6.75;0.93;;;12.40;99.90;;;;;;5002706;28;20421;-72